createdAt,value
2023-04-30T05:02:48.538Z,4.60
2023-04-30T05:05:15.692Z,4.60
2023-04-30T05:07:43.114Z,4.61
2023-04-30T05:10:09.868Z,4.61
2023-04-30T05:12:37.015Z,4.61
2023-04-30T05:15:04.575Z,4.64
2023-04-30T05:17:31.597Z,4.65
2023-04-30T05:19:58.406Z,4.67
2023-04-30T05:22:25.650Z,4.71
2023-04-30T05:24:53.006Z,4.74
2023-04-30T05:27:19.932Z,4.80
2023-04-30T05:29:46.496Z,4.88
2023-04-30T05:32:13.730Z,4.89
2023-04-30T05:34:40.340Z,4.95
2023-04-30T05:37:07.531Z,5.03
2023-04-30T05:39:34.112Z,5.09
2023-04-30T05:42:02.760Z,5.18
2023-04-30T05:44:30.397Z,5.23
2023-04-30T05:46:57.658Z,5.31
2023-04-30T05:49:24.286Z,5.45
2023-04-30T05:51:51.532Z,5.57
2023-04-30T05:54:18.151Z,5.72
2023-04-30T05:56:45.400Z,5.91
2023-04-30T05:59:11.988Z,6.11
2023-04-30T06:01:39.234Z,6.28
2023-04-30T06:04:05.869Z,6.47
2023-04-30T06:06:33.265Z,6.65
2023-04-30T06:08:59.871Z,6.83
2023-04-30T06:11:27.528Z,7.02
2023-04-30T06:13:54.275Z,7.23
2023-04-30T06:16:21.451Z,7.44
2023-04-30T06:18:48.492Z,7.67
2023-04-30T06:21:15.223Z,7.89
2023-04-30T06:23:42.150Z,8.12
2023-04-30T06:26:08.740Z,8.35
2023-04-30T06:28:35.626Z,8.56
2023-04-30T06:31:02.283Z,8.79
2023-04-30T06:33:29.486Z,9.04
2023-04-30T06:35:56.043Z,9.33
2023-04-30T06:38:23.251Z,9.54
2023-04-30T06:40:50.341Z,9.81
2023-04-30T06:43:17.640Z,10.10
2023-04-30T06:45:44.371Z,10.27
2023-04-30T06:48:11.649Z,10.40
2023-04-30T06:50:44.650Z,10.57
2023-04-30T06:53:13.005Z,10.69
2023-04-30T06:55:40.954Z,10.84
2023-04-30T06:58:08.397Z,11.10
2023-04-30T07:00:35.285Z,11.40
2023-04-30T07:03:04.044Z,11.57
2023-04-30T07:05:31.399Z,11.78
2023-04-30T07:07:59.033Z,12.02
2023-04-30T07:10:26.237Z,12.38
2023-04-30T07:12:53.103Z,12.72
2023-04-30T07:15:19.974Z,12.87
2023-04-30T07:17:47.294Z,12.82
2023-04-30T07:20:17.281Z,12.87
2023-04-30T07:22:46.307Z,13.04
2023-04-30T07:25:13.946Z,13.12
2023-04-30T07:27:41.200Z,13.41
2023-04-30T07:30:10.592Z,13.55
2023-04-30T07:32:38.475Z,13.66
2023-04-30T07:35:06.161Z,13.58
2023-04-30T07:37:35.478Z,13.71
2023-04-30T07:40:03.504Z,13.80
2023-04-30T07:42:30.784Z,13.89
2023-04-30T07:44:57.456Z,14.13
2023-04-30T07:47:25.698Z,14.21
2023-04-30T07:49:52.759Z,14.32
2023-04-30T07:52:19.827Z,14.35
2023-04-30T07:54:46.402Z,14.63
2023-04-30T07:57:13.414Z,14.99
2023-04-30T07:59:40.151Z,15.01
2023-04-30T08:02:08.811Z,15.07
2023-04-30T08:04:35.761Z,15.08
2023-04-30T08:07:02.972Z,15.07
2023-04-30T08:09:29.506Z,15.13
2023-04-30T08:11:56.722Z,15.15
2023-04-30T08:14:23.284Z,15.24
2023-04-30T08:16:50.601Z,15.07
2023-04-30T08:19:17.196Z,15.19
2023-04-30T08:21:44.473Z,15.22
2023-04-30T08:24:11.045Z,15.30
2023-04-30T08:26:37.999Z,15.11
2023-04-30T08:29:05.269Z,14.94
2023-04-30T08:31:32.065Z,15.07
2023-04-30T08:33:59.326Z,15.42
2023-04-30T08:36:27.006Z,15.45
2023-04-30T08:38:53.744Z,15.47
2023-04-30T08:41:25.532Z,15.39
2023-04-30T08:44:00.168Z,15.68
2023-04-30T08:46:29.084Z,15.53
2023-04-30T08:48:56.144Z,15.16
2023-04-30T08:51:24.097Z,15.16
2023-04-30T08:53:51.712Z,15.32
2023-04-30T08:56:18.271Z,15.46
2023-04-30T08:58:45.506Z,15.88
2023-04-30T09:01:12.483Z,15.97
2023-04-30T09:03:39.327Z,16.28
2023-04-30T09:06:06.621Z,16.60
2023-04-30T09:09:09.080Z,16.67
2023-04-30T09:11:36.033Z,16.64
2023-04-30T09:14:03.335Z,16.73
2023-04-30T09:16:45.322Z,16.87
2023-04-30T09:19:25.714Z,16.76
2023-04-30T09:21:53.466Z,16.92
2023-04-30T09:24:20.429Z,17.17
2023-04-30T09:26:47.429Z,17.30
2023-04-30T09:29:14.354Z,17.45
2023-04-30T09:31:47.375Z,17.65
2023-04-30T09:34:15.085Z,17.50
2023-04-30T09:36:55.436Z,17.35
2023-04-30T09:39:22.427Z,17.27
2023-04-30T09:41:51.663Z,17.37
2023-04-30T09:44:32.054Z,17.76
2023-04-30T09:46:59.662Z,17.78
2023-04-30T09:49:27.228Z,17.60
2023-04-30T09:51:59.938Z,17.67
2023-04-30T09:54:30.799Z,17.56
2023-04-30T09:57:00.208Z,17.72
2023-04-30T09:59:39.429Z,18.01
2023-04-30T10:02:07.351Z,18.05
2023-04-30T10:04:39.150Z,18.13
2023-04-30T10:07:15.406Z,18.10
2023-04-30T10:09:57.770Z,17.67
2023-04-30T10:12:34.760Z,17.78
2023-04-30T10:15:11.275Z,17.97
2023-04-30T10:17:42.818Z,18.00
2023-04-30T10:20:11.180Z,18.05
2023-04-30T10:22:38.563Z,17.97
2023-04-30T10:25:06.041Z,17.93
2023-04-30T10:27:34.818Z,17.92
2023-04-30T10:30:02.463Z,17.65
2023-04-30T10:32:42.658Z,17.74
2023-04-30T10:35:24.317Z,17.78
2023-04-30T10:37:57.739Z,18.06
2023-04-30T10:40:27.033Z,18.32
2023-04-30T10:42:55.156Z,18.46
2023-04-30T10:45:48.717Z,18.50
2023-04-30T10:48:24.284Z,18.38
2023-04-30T10:50:59.328Z,18.35
2023-04-30T10:53:30.533Z,18.38
2023-04-30T10:56:06.661Z,18.11
2023-04-30T10:58:36.214Z,18.34
2023-04-30T11:01:10.659Z,18.38
2023-04-30T11:03:40.557Z,18.28
2023-04-30T11:06:14.620Z,17.87
2023-04-30T11:08:46.182Z,18.12
2023-04-30T11:11:18.252Z,18.33
2023-04-30T11:13:46.832Z,18.40
2023-04-30T11:16:45.481Z,18.45
2023-04-30T11:19:14.519Z,18.61
2023-04-30T11:21:42.561Z,18.27
2023-04-30T11:24:09.828Z,18.54
2023-04-30T11:27:08.856Z,18.56
2023-04-30T11:29:36.464Z,18.31
2023-04-30T11:32:05.300Z,18.23
2023-04-30T11:34:34.673Z,18.28
2023-04-30T11:37:03.327Z,18.38
2023-04-30T11:39:35.631Z,18.32
2023-04-30T11:42:03.326Z,18.47
2023-04-30T11:44:30.812Z,18.76
2023-04-30T11:46:57.959Z,19.05
2023-04-30T11:49:25.503Z,19.10
2023-04-30T11:51:53.160Z,19.01
2023-04-30T11:54:20.668Z,18.81
2023-04-30T11:56:51.116Z,18.99
2023-04-30T11:59:20.195Z,19.02
2023-04-30T12:01:46.847Z,18.99
2023-04-30T12:04:14.237Z,19.09
2023-04-30T12:06:41.448Z,19.22
2023-04-30T12:09:13.602Z,19.24
2023-04-30T12:11:40.781Z,18.62
2023-04-30T12:14:11.284Z,18.37
2023-04-30T12:16:51.331Z,18.43
2023-04-30T12:19:20.096Z,18.39
2023-04-30T12:21:48.593Z,18.12
2023-04-30T12:24:17.899Z,18.14
2023-04-30T12:26:45.578Z,18.14
2023-04-30T12:29:17.837Z,18.49
2023-04-30T12:31:46.015Z,18.57
2023-04-30T12:34:14.763Z,18.51
2023-04-30T12:36:43.436Z,18.28
2023-04-30T12:39:16.317Z,18.27
2023-04-30T12:41:45.935Z,18.22
2023-04-30T12:44:27.985Z,18.33
2023-04-30T12:47:00.903Z,18.44
2023-04-30T12:49:34.674Z,18.55
2023-04-30T12:52:12.635Z,18.36
2023-04-30T12:54:40.447Z,18.55
2023-04-30T12:57:09.158Z,18.51
2023-04-30T12:59:56.636Z,18.37
2023-04-30T13:02:25.757Z,18.28
2023-04-30T13:04:53.308Z,18.25
2023-04-30T13:07:21.120Z,18.19
2023-04-30T13:09:48.403Z,18.25
2023-04-30T13:12:15.067Z,18.31
2023-04-30T13:14:42.623Z,18.31
2023-04-30T13:17:11.057Z,18.28
2023-04-30T13:19:38.311Z,18.08
2023-04-30T13:22:05.010Z,18.10
2023-04-30T13:24:34.425Z,18.05
2023-04-30T13:27:02.666Z,18.04
2023-04-30T13:29:30.008Z,18.06
2023-04-30T13:31:57.315Z,18.25
2023-04-30T13:34:25.307Z,18.09
2023-04-30T13:36:53.411Z,17.89
2023-04-30T13:39:22.322Z,18.02
2023-04-30T13:41:49.308Z,18.27
2023-04-30T13:44:17.470Z,18.24
2023-04-30T13:46:44.233Z,18.16
2023-04-30T13:49:11.854Z,18.01
2023-04-30T13:51:39.363Z,17.63
2023-04-30T13:54:06.883Z,17.55
2023-04-30T13:56:34.081Z,17.51
2023-04-30T13:59:01.597Z,17.42
2023-04-30T14:01:28.888Z,17.42
2023-04-30T14:03:56.442Z,17.40
2023-04-30T14:06:23.707Z,17.34
2023-04-30T14:08:51.185Z,17.13
2023-04-30T14:11:17.834Z,17.00
2023-04-30T14:13:45.167Z,16.82
2023-04-30T14:16:12.142Z,16.65
2023-04-30T14:18:42.354Z,16.53
2023-04-30T14:21:09.184Z,16.59
2023-04-30T14:23:38.960Z,16.56
2023-04-30T14:26:06.108Z,16.34
2023-04-30T14:28:33.790Z,16.30
2023-04-30T14:31:00.814Z,16.12
2023-04-30T14:33:28.367Z,16.03
2023-04-30T14:35:55.204Z,16.09
2023-04-30T14:38:22.575Z,16.08
2023-04-30T14:40:49.226Z,15.98
2023-04-30T14:43:16.694Z,15.89
2023-04-30T14:45:45.337Z,15.90
2023-04-30T14:48:13.219Z,15.87
2023-04-30T14:50:41.084Z,15.83
2023-04-30T14:53:09.754Z,15.75
2023-04-30T14:55:36.839Z,15.73
2023-04-30T14:58:04.721Z,15.71
2023-04-30T15:00:33.330Z,15.74
2023-04-30T15:03:01.786Z,15.68
2023-04-30T15:05:29.554Z,15.64
2023-04-30T15:07:56.736Z,15.56
2023-04-30T15:10:23.492Z,15.50
2023-04-30T15:12:50.879Z,15.54
2023-04-30T15:15:18.893Z,15.47
2023-04-30T15:17:46.645Z,15.46
2023-04-30T15:20:13.601Z,15.48
2023-04-30T15:22:40.981Z,15.44
2023-04-30T15:25:08.019Z,15.38
2023-04-30T15:27:37.101Z,15.31
2023-04-30T15:30:12.398Z,15.33
2023-04-30T15:32:42.178Z,15.35
2023-04-30T15:35:09.634Z,15.30
2023-04-30T15:37:39.071Z,15.28
2023-04-30T15:40:18.322Z,15.27
2023-04-30T15:43:10.649Z,15.27
2023-04-30T15:45:37.620Z,15.19
2023-04-30T15:48:17.327Z,15.15
2023-04-30T15:50:44.253Z,15.14
2023-04-30T15:53:11.395Z,15.12
2023-04-30T15:55:40.617Z,15.12
2023-04-30T15:58:08.295Z,15.12
2023-04-30T16:00:35.163Z,15.09
2023-04-30T16:03:06.526Z,15.06
2023-04-30T16:11:03.798Z,14.91
2023-04-30T16:13:31.227Z,14.88
2023-04-30T16:16:00.018Z,14.88
2023-04-30T16:18:34.270Z,14.84
2023-04-30T16:21:01.703Z,14.86
2023-04-30T16:23:29.742Z,14.89
2023-04-30T16:25:56.588Z,14.86
2023-04-30T16:28:24.547Z,14.86
2023-04-30T16:33:39.076Z,14.83
2023-04-30T16:36:06.578Z,14.79
2023-04-30T16:38:33.299Z,14.81
2023-04-30T16:41:01.328Z,14.75
2023-04-30T16:43:28.955Z,14.74
2023-04-30T16:45:56.796Z,14.73
2023-04-30T16:48:24.736Z,14.69
2023-04-30T16:50:51.679Z,14.67
2023-04-30T16:56:08.858Z,14.62
2023-04-30T17:01:17.948Z,14.58
2023-04-30T17:03:48.020Z,14.57
2023-04-30T17:06:15.429Z,14.55
2023-04-30T17:11:31.952Z,14.50
2023-04-30T17:13:58.499Z,14.50
2023-04-30T17:16:25.789Z,14.50
2023-04-30T17:18:52.416Z,14.42
2023-04-30T17:21:19.621Z,14.38
2023-04-30T17:23:46.135Z,14.36
2023-04-30T17:26:12.998Z,14.32
2023-04-30T17:28:39.719Z,14.27
2023-04-30T17:31:07.842Z,14.25
2023-04-30T17:33:34.423Z,14.23
2023-04-30T17:36:01.663Z,14.18
2023-04-30T17:38:28.230Z,14.16
2023-04-30T17:40:56.941Z,14.10
2023-04-30T17:43:24.163Z,14.07
2023-04-30T17:45:53.944Z,14.05
2023-04-30T17:48:20.596Z,14.01
2023-04-30T17:50:48.046Z,13.94
2023-04-30T17:53:14.684Z,13.93
2023-04-30T17:55:41.982Z,13.91
2023-04-30T17:58:11.612Z,13.86
2023-04-30T18:00:39.673Z,13.83
2023-04-30T18:03:06.628Z,13.78
2023-04-30T18:05:35.587Z,13.72
2023-04-30T18:08:02.778Z,13.71
2023-04-30T18:10:29.681Z,13.67
2023-04-30T18:12:58.588Z,13.62
2023-04-30T18:15:26.087Z,13.54
2023-04-30T18:17:53.104Z,13.51
2023-04-30T18:20:21.730Z,13.47
2023-04-30T18:22:48.905Z,13.42
2023-04-30T18:25:17.086Z,13.35
2023-04-30T18:27:44.870Z,13.31
2023-04-30T18:30:12.958Z,13.26
2023-04-30T18:32:41.550Z,13.19
2023-04-30T18:35:09.289Z,13.14
2023-04-30T18:37:35.906Z,13.08
2023-04-30T18:40:03.928Z,13.03
2023-04-30T18:42:31.227Z,12.93
2023-04-30T18:44:57.814Z,12.86
2023-04-30T18:47:25.023Z,12.81
2023-04-30T18:49:51.722Z,12.75
2023-04-30T18:52:19.050Z,12.66
2023-04-30T18:54:46.471Z,12.61
2023-04-30T18:57:18.652Z,12.54
2023-04-30T18:59:45.427Z,12.45
2023-04-30T19:02:13.003Z,12.41
2023-04-30T19:04:39.615Z,12.36
2023-04-30T19:07:06.862Z,12.30
2023-04-30T19:09:36.865Z,12.26
2023-04-30T19:12:04.290Z,12.19
2023-04-30T19:14:30.969Z,12.13
2023-04-30T19:16:58.321Z,12.06
2023-04-30T19:19:25.109Z,12.02
2023-04-30T19:21:53.768Z,11.92
2023-04-30T19:24:21.187Z,11.89
2023-04-30T19:26:49.806Z,11.84
2023-04-30T19:29:16.534Z,11.79
2023-04-30T19:31:43.818Z,11.77
2023-04-30T19:34:10.966Z,11.70
2023-04-30T19:36:38.168Z,11.66
2023-04-30T19:39:07.229Z,11.57
2023-04-30T19:41:34.363Z,11.53
2023-04-30T19:44:01.015Z,11.45
2023-04-30T19:46:27.999Z,11.43
2023-04-30T19:48:54.815Z,11.37
2023-04-30T19:52:01.834Z,11.28
2023-04-30T19:54:53.246Z,11.23
2023-04-30T19:57:20.029Z,11.15
2023-04-30T19:59:47.671Z,11.14
2023-04-30T20:02:14.884Z,11.08
2023-04-30T20:04:42.267Z,11.07
2023-04-30T20:07:09.051Z,11.03
2023-04-30T20:09:37.621Z,10.99
2023-04-30T20:12:04.683Z,10.93
2023-04-30T20:14:32.182Z,10.89
2023-04-30T20:16:59.234Z,10.87
2023-04-30T20:19:26.678Z,10.84
2023-04-30T20:21:54.503Z,10.79
2023-04-30T20:24:22.681Z,10.75
2023-04-30T20:26:51.640Z,10.70
2023-04-30T20:29:20.553Z,10.65
